sensor_id;sensor_type;location;lat;lon;timestamp;P1;durP1;ratioP1;P2;durP2;ratioP2
60030;SDS011;45901;47.600;9.890;2023-02-28T00:01:21;9.00;;;5.73;;
60030;SDS011;45901;47.600;9.890;2023-02-28T00:03:49;10.43;;;5.97;;
60030;SDS011;45901;47.600;9.890;2023-02-28T00:06:16;10.13;;;6.67;;
60030;SDS011;45901;47.600;9.890;2023-02-28T00:08:43;10.43;;;6.50;;
60030;SDS011;45901;47.600;9.890;2023-02-28T00:11:11;8.43;;;6.23;;
60030;SDS011;45901;47.600;9.890;2023-02-28T00:13:41;12.50;;;5.87;;
60030;SDS011;45901;47.600;9.890;2023-02-28T00:16:12;8.93;;;5.70;;
60030;SDS011;45901;47.600;9.890;2023-02-28T00:18:42;8.57;;;6.13;;
60030;SDS011;45901;47.600;9.890;2023-02-28T00:21:10;6.87;;;5.57;;
60030;SDS011;45901;47.600;9.890;2023-02-28T00:23:37;8.60;;;6.00;;
60030;SDS011;45901;47.600;9.890;2023-02-28T00:26:04;9.77;;;6.17;;
60030;SDS011;45901;47.600;9.890;2023-02-28T00:28:32;10.33;;;5.83;;
60030;SDS011;45901;47.600;9.890;2023-02-28T00:30:59;10.77;;;5.97;;
60030;SDS011;45901;47.600;9.890;2023-02-28T00:33:26;9.07;;;6.63;;
60030;SDS011;45901;47.600;9.890;2023-02-28T00:36:02;12.33;;;5.50;;
60030;SDS011;45901;47.600;9.890;2023-02-28T00:38:31;8.23;;;5.53;;
60030;SDS011;45901;47.600;9.890;2023-02-28T00:40:58;8.40;;;5.80;;
60030;SDS011;45901;47.600;9.890;2023-02-28T00:43:29;9.10;;;6.00;;
60030;SDS011;45901;47.600;9.890;2023-02-28T00:45:58;9.77;;;5.73;;
60030;SDS011;45901;47.600;9.890;2023-02-28T00:48:25;8.20;;;5.23;;
60030;SDS011;45901;47.600;9.890;2023-02-28T00:50:52;10.07;;;6.10;;
60030;SDS011;45901;47.600;9.890;2023-02-28T00:53:21;10.17;;;5.87;;
60030;SDS011;45901;47.600;9.890;2023-02-28T00:55:48;10.40;;;6.20;;
60030;SDS011;45901;47.600;9.890;2023-02-28T00:58:16;9.50;;;6.13;;
60030;SDS011;45901;47.600;9.890;2023-02-28T01:00:43;7.87;;;5.43;;
60030;SDS011;45901;47.600;9.890;2023-02-28T01:03:14;8.60;;;5.47;;
60030;SDS011;45901;47.600;9.890;2023-02-28T01:05:42;7.83;;;5.60;;
60030;SDS011;45901;47.600;9.890;2023-02-28T01:08:10;9.43;;;5.53;;
60030;SDS011;45901;47.600;9.890;2023-02-28T01:10:40;9.10;;;6.37;;
60030;SDS011;45901;47.600;9.890;2023-02-28T01:13:07;7.60;;;5.67;;
60030;SDS011;45901;47.600;9.890;2023-02-28T01:15:35;8.47;;;5.50;;
60030;SDS011;45901;47.600;9.890;2023-02-28T01:18:02;9.40;;;5.83;;
60030;SDS011;45901;47.600;9.890;2023-02-28T01:20:29;10.53;;;5.80;;
60030;SDS011;45901;47.600;9.890;2023-02-28T01:22:56;9.60;;;5.93;;
60030;SDS011;45901;47.600;9.890;2023-02-28T01:25:23;8.80;;;5.33;;
60030;SDS011;45901;47.600;9.890;2023-02-28T01:27:52;9.67;;;5.50;;
60030;SDS011;45901;47.600;9.890;2023-02-28T01:30:19;8.20;;;5.37;;
60030;SDS011;45901;47.600;9.890;2023-02-28T01:32:47;9.40;;;5.47;;
60030;SDS011;45901;47.600;9.890;2023-02-28T01:35:16;8.53;;;5.87;;
60030;SDS011;45901;47.600;9.890;2023-02-28T01:37:43;7.60;;;5.77;;
60030;SDS011;45901;47.600;9.890;2023-02-28T01:40:11;9.17;;;5.70;;
60030;SDS011;45901;47.600;9.890;2023-02-28T01:42:40;9.33;;;6.17;;
60030;SDS011;45901;47.600;9.890;2023-02-28T01:45:16;8.80;;;6.00;;
60030;SDS011;45901;47.600;9.890;2023-02-28T01:47:49;10.13;;;6.97;;
60030;SDS011;45901;47.600;9.890;2023-02-28T01:50:21;9.33;;;5.60;;
60030;SDS011;45901;47.600;9.890;2023-02-28T01:52:52;7.83;;;5.47;;
60030;SDS011;45901;47.600;9.890;2023-02-28T01:55:23;7.13;;;5.33;;
60030;SDS011;45901;47.600;9.890;2023-02-28T01:57:55;6.83;;;5.33;;
60030;SDS011;45901;47.600;9.890;2023-02-28T02:00:28;9.57;;;6.13;;
60030;SDS011;45901;47.600;9.890;2023-02-28T02:02:57;7.17;;;5.27;;
60030;SDS011;45901;47.600;9.890;2023-02-28T02:05:29;8.97;;;5.70;;
60030;SDS011;45901;47.600;9.890;2023-02-28T02:08:01;7.67;;;5.77;;
60030;SDS011;45901;47.600;9.890;2023-02-28T02:10:31;8.10;;;5.77;;
60030;SDS011;45901;47.600;9.890;2023-02-28T02:13:05;9.33;;;5.33;;
60030;SDS011;45901;47.600;9.890;2023-02-28T02:15:46;9.20;;;5.60;;
60030;SDS011;45901;47.600;9.890;2023-02-28T02:18:28;8.93;;;5.53;;
60030;SDS011;45901;47.600;9.890;2023-02-28T02:24:28;9.40;;;5.80;;
60030;SDS011;45901;47.600;9.890;2023-02-28T02:27:26;8.93;;;5.70;;
60030;SDS011;45901;47.600;9.890;2023-02-28T02:30:12;10.63;;;6.20;;
60030;SDS011;45901;47.600;9.890;2023-02-28T02:33:16;8.63;;;5.73;;
60030;SDS011;45901;47.600;9.890;2023-02-28T02:36:21;9.57;;;6.03;;
60030;SDS011;45901;47.600;9.890;2023-02-28T02:38:56;9.07;;;5.80;;
60030;SDS011;45901;47.600;9.890;2023-02-28T02:41:32;9.57;;;5.53;;
60030;SDS011;45901;47.600;9.890;2023-02-28T02:44:05;8.57;;;6.03;;
60030;SDS011;45901;47.600;9.890;2023-02-28T02:46:40;9.87;;;6.53;;
60030;SDS011;45901;47.600;9.890;2023-02-28T02:49:11;9.20;;;5.60;;
60030;SDS011;45901;47.600;9.890;2023-02-28T02:51:46;10.87;;;5.70;;
60030;SDS011;45901;47.600;9.890;2023-02-28T02:54:17;11.67;;;6.20;;
60030;SDS011;45901;47.600;9.890;2023-02-28T02:56:53;10.13;;;6.07;;
60030;SDS011;45901;47.600;9.890;2023-02-28T02:59:26;8.83;;;5.80;;
60030;SDS011;45901;47.600;9.890;2023-02-28T03:01:57;9.80;;;6.07;;
60030;SDS011;45901;47.600;9.890;2023-02-28T03:04:30;9.23;;;5.90;;
60030;SDS011;45901;47.600;9.890;2023-02-28T03:07:05;9.23;;;6.20;;
60030;SDS011;45901;47.600;9.890;2023-02-28T03:09:33;10.33;;;6.10;;
60030;SDS011;45901;47.600;9.890;2023-02-28T03:12:02;7.80;;;5.87;;
60030;SDS011;45901;47.600;9.890;2023-02-28T03:14:35;8.47;;;5.97;;
60030;SDS011;45901;47.600;9.890;2023-02-28T03:17:21;12.70;;;6.00;;
60030;SDS011;45901;47.600;9.890;2023-02-28T03:20:04;8.67;;;5.97;;
60030;SDS011;45901;47.600;9.890;2023-02-28T03:22:47;8.70;;;5.83;;
60030;SDS011;45901;47.600;9.890;2023-02-28T03:25:27;12.27;;;6.13;;
60030;SDS011;45901;47.600;9.890;2023-02-28T03:28:05;10.87;;;6.47;;
60030;SDS011;45901;47.600;9.890;2023-02-28T03:30:43;9.50;;;5.80;;
60030;SDS011;45901;47.600;9.890;2023-02-28T03:33:19;10.37;;;6.13;;
60030;SDS011;45901;47.600;9.890;2023-02-28T03:35:50;11.60;;;5.77;;
60030;SDS011;45901;47.600;9.890;2023-02-28T03:38:24;8.67;;;5.67;;
60030;SDS011;45901;47.600;9.890;2023-02-28T03:40:58;11.90;;;5.90;;
60030;SDS011;45901;47.600;9.890;2023-02-28T03:43:33;10.60;;;6.47;;
60030;SDS011;45901;47.600;9.890;2023-02-28T03:46:06;8.80;;;5.90;;
60030;SDS011;45901;47.600;9.890;2023-02-28T03:48:40;10.67;;;5.23;;
60030;SDS011;45901;47.600;9.890;2023-02-28T03:51:12;11.40;;;6.27;;
60030;SDS011;45901;47.600;9.890;2023-02-28T03:53:45;7.87;;;5.23;;
60030;SDS011;45901;47.600;9.890;2023-02-28T03:56:18;10.40;;;7.10;;
60030;SDS011;45901;47.600;9.890;2023-02-28T03:58:49;7.60;;;6.20;;
60030;SDS011;45901;47.600;9.890;2023-02-28T04:01:23;7.57;;;5.83;;
60030;SDS011;45901;47.600;9.890;2023-02-28T04:03:54;10.03;;;6.33;;
60030;SDS011;45901;47.600;9.890;2023-02-28T04:06:22;10.63;;;6.17;;
60030;SDS011;45901;47.600;9.890;2023-02-28T04:08:51;9.73;;;6.33;;
60030;SDS011;45901;47.600;9.890;2023-02-28T04:11:21;10.03;;;6.40;;
60030;SDS011;45901;47.600;9.890;2023-02-28T04:13:54;10.97;;;6.60;;
60030;SDS011;45901;47.600;9.890;2023-02-28T04:16:21;11.37;;;6.77;;
60030;SDS011;45901;47.600;9.890;2023-02-28T04:18:48;10.60;;;6.43;;
60030;SDS011;45901;47.600;9.890;2023-02-28T04:21:15;9.07;;;6.20;;
60030;SDS011;45901;47.600;9.890;2023-02-28T04:23:45;10.57;;;6.60;;
60030;SDS011;45901;47.600;9.890;2023-02-28T04:26:14;9.17;;;6.17;;
60030;SDS011;45901;47.600;9.890;2023-02-28T04:28:41;10.63;;;7.33;;
60030;SDS011;45901;47.600;9.890;2023-02-28T04:31:08;8.97;;;5.83;;
60030;SDS011;45901;47.600;9.890;2023-02-28T04:33:36;9.67;;;6.57;;
60030;SDS011;45901;47.600;9.890;2023-02-28T04:36:03;9.47;;;6.87;;
60030;SDS011;45901;47.600;9.890;2023-02-28T04:38:33;8.30;;;6.30;;
60030;SDS011;45901;47.600;9.890;2023-02-28T04:41:02;12.10;;;7.10;;
60030;SDS011;45901;47.600;9.890;2023-02-28T04:43:31;10.30;;;6.73;;
60030;SDS011;45901;47.600;9.890;2023-02-28T04:46:00;11.17;;;6.40;;
60030;SDS011;45901;47.600;9.890;2023-02-28T04:48:30;11.53;;;7.10;;
60030;SDS011;45901;47.600;9.890;2023-02-28T04:50:59;9.80;;;6.47;;
60030;SDS011;45901;47.600;9.890;2023-02-28T04:53:27;10.70;;;6.53;;
60030;SDS011;45901;47.600;9.890;2023-02-28T04:55:55;10.37;;;6.83;;
60030;SDS011;45901;47.600;9.890;2023-02-28T04:58:22;11.47;;;6.57;;
60030;SDS011;45901;47.600;9.890;2023-02-28T05:00:52;7.17;;;5.90;;
60030;SDS011;45901;47.600;9.890;2023-02-28T05:03:20;15.13;;;7.30;;
60030;SDS011;45901;47.600;9.890;2023-02-28T05:05:47;11.67;;;7.10;;
60030;SDS011;45901;47.600;9.890;2023-02-28T05:08:14;9.37;;;6.37;;
60030;SDS011;45901;47.600;9.890;2023-02-28T05:10:42;11.20;;;6.97;;
60030;SDS011;45901;47.600;9.890;2023-02-28T05:13:09;10.00;;;6.73;;
60030;SDS011;45901;47.600;9.890;2023-02-28T05:15:38;11.43;;;7.63;;
60030;SDS011;45901;47.600;9.890;2023-02-28T05:18:07;11.17;;;7.43;;
60030;SDS011;45901;47.600;9.890;2023-02-28T05:20:35;9.57;;;6.47;;
60030;SDS011;45901;47.600;9.890;2023-02-28T05:23:02;10.37;;;7.00;;
60030;SDS011;45901;47.600;9.890;2023-02-28T05:25:30;10.00;;;7.00;;
60030;SDS011;45901;47.600;9.890;2023-02-28T05:27:57;11.67;;;7.80;;
60030;SDS011;45901;47.600;9.890;2023-02-28T05:30:24;12.50;;;7.83;;
60030;SDS011;45901;47.600;9.890;2023-02-28T05:32:51;10.27;;;7.30;;
60030;SDS011;45901;47.600;9.890;2023-02-28T05:35:20;12.80;;;7.43;;
60030;SDS011;45901;47.600;9.890;2023-02-28T05:37:47;12.30;;;7.77;;
60030;SDS011;45901;47.600;9.890;2023-02-28T05:40:15;12.87;;;8.20;;
60030;SDS011;45901;47.600;9.890;2023-02-28T05:42:43;12.70;;;7.60;;
60030;SDS011;45901;47.600;9.890;2023-02-28T05:45:10;11.07;;;7.50;;
60030;SDS011;45901;47.600;9.890;2023-02-28T05:47:38;12.00;;;7.40;;
60030;SDS011;45901;47.600;9.890;2023-02-28T05:50:05;10.27;;;7.17;;
60030;SDS011;45901;47.600;9.890;2023-02-28T05:52:36;13.20;;;7.53;;
60030;SDS011;45901;47.600;9.890;2023-02-28T05:55:04;14.17;;;7.87;;
60030;SDS011;45901;47.600;9.890;2023-02-28T05:57:32;14.57;;;8.27;;
60030;SDS011;45901;47.600;9.890;2023-02-28T05:59:59;16.93;;;8.00;;
60030;SDS011;45901;47.600;9.890;2023-02-28T06:02:27;12.93;;;8.00;;
60030;SDS011;45901;47.600;9.890;2023-02-28T06:04:54;13.73;;;7.20;;
60030;SDS011;45901;47.600;9.890;2023-02-28T06:07:21;12.80;;;8.17;;
60030;SDS011;45901;47.600;9.890;2023-02-28T06:09:50;12.83;;;8.00;;
60030;SDS011;45901;47.600;9.890;2023-02-28T06:12:17;13.57;;;7.93;;
60030;SDS011;45901;47.600;9.890;2023-02-28T06:14:44;16.47;;;9.80;;
60030;SDS011;45901;47.600;9.890;2023-02-28T06:17:11;18.03;;;10.83;;
60030;SDS011;45901;47.600;9.890;2023-02-28T06:19:38;14.63;;;8.13;;
60030;SDS011;45901;47.600;9.890;2023-02-28T06:22:06;12.33;;;7.77;;
60030;SDS011;45901;47.600;9.890;2023-02-28T06:24:33;11.07;;;7.53;;
60030;SDS011;45901;47.600;9.890;2023-02-28T06:27:02;13.13;;;7.73;;
60030;SDS011;45901;47.600;9.890;2023-02-28T06:29:30;12.00;;;7.70;;
60030;SDS011;45901;47.600;9.890;2023-02-28T06:31:57;11.90;;;7.60;;
60030;SDS011;45901;47.600;9.890;2023-02-28T06:34:24;11.37;;;7.50;;
60030;SDS011;45901;47.600;9.890;2023-02-28T06:36:52;12.63;;;7.70;;
60030;SDS011;45901;47.600;9.890;2023-02-28T06:39:19;13.57;;;7.80;;
60030;SDS011;45901;47.600;9.890;2023-02-28T06:41:46;12.87;;;7.70;;
60030;SDS011;45901;47.600;9.890;2023-02-28T06:44:15;11.87;;;7.40;;
60030;SDS011;45901;47.600;9.890;2023-02-28T06:46:44;11.93;;;7.83;;
60030;SDS011;45901;47.600;9.890;2023-02-28T06:49:12;13.30;;;8.20;;
60030;SDS011;45901;47.600;9.890;2023-02-28T06:51:40;14.90;;;8.30;;
60030;SDS011;45901;47.600;9.890;2023-02-28T06:54:10;14.80;;;8.77;;
60030;SDS011;45901;47.600;9.890;2023-02-28T06:56:38;15.63;;;7.90;;
60030;SDS011;45901;47.600;9.890;2023-02-28T06:59:05;12.40;;;8.27;;
60030;SDS011;45901;47.600;9.890;2023-02-28T07:01:34;12.00;;;8.37;;
60030;SDS011;45901;47.600;9.890;2023-02-28T07:04:02;10.70;;;7.70;;
60030;SDS011;45901;47.600;9.890;2023-02-28T07:06:30;12.50;;;8.07;;
60030;SDS011;45901;47.600;9.890;2023-02-28T07:08:58;14.97;;;8.43;;
60030;SDS011;45901;47.600;9.890;2023-02-28T07:11:26;12.67;;;7.57;;
60030;SDS011;45901;47.600;9.890;2023-02-28T07:13:54;13.57;;;8.03;;
60030;SDS011;45901;47.600;9.890;2023-02-28T07:16:23;13.13;;;8.37;;
60030;SDS011;45901;47.600;9.890;2023-02-28T07:18:53;12.53;;;8.43;;
60030;SDS011;45901;47.600;9.890;2023-02-28T07:21:20;13.27;;;8.60;;
60030;SDS011;45901;47.600;9.890;2023-02-28T07:23:48;13.43;;;8.47;;
60030;SDS011;45901;47.600;9.890;2023-02-28T07:26:17;14.53;;;8.83;;
60030;SDS011;45901;47.600;9.890;2023-02-28T07:28:46;11.87;;;7.57;;
60030;SDS011;45901;47.600;9.890;2023-02-28T07:31:14;13.10;;;7.97;;
60030;SDS011;45901;47.600;9.890;2023-02-28T07:33:42;13.03;;;7.73;;
60030;SDS011;45901;47.600;9.890;2023-02-28T07:36:11;11.13;;;7.73;;
60030;SDS011;45901;47.600;9.890;2023-02-28T07:38:44;14.37;;;7.93;;
60030;SDS011;45901;47.600;9.890;2023-02-28T07:41:14;10.67;;;7.40;;
60030;SDS011;45901;47.600;9.890;2023-02-28T07:43:42;12.27;;;7.70;;
60030;SDS011;45901;47.600;9.890;2023-02-28T07:46:10;13.23;;;8.13;;
60030;SDS011;45901;47.600;9.890;2023-02-28T07:48:41;13.40;;;8.47;;
60030;SDS011;45901;47.600;9.890;2023-02-28T07:51:09;12.30;;;7.57;;
60030;SDS011;45901;47.600;9.890;2023-02-28T07:53:37;11.00;;;7.80;;
60030;SDS011;45901;47.600;9.890;2023-02-28T07:56:05;16.37;;;9.27;;
60030;SDS011;45901;47.600;9.890;2023-02-28T07:58:33;15.83;;;9.33;;
60030;SDS011;45901;47.600;9.890;2023-02-28T08:01:04;11.83;;;7.63;;
60030;SDS011;45901;47.600;9.890;2023-02-28T08:03:33;11.70;;;7.23;;
60030;SDS011;45901;47.600;9.890;2023-02-28T08:06:00;10.97;;;7.57;;
60030;SDS011;45901;47.600;9.890;2023-02-28T08:08:30;12.93;;;7.97;;
60030;SDS011;45901;47.600;9.890;2023-02-28T08:10:58;10.70;;;7.20;;
60030;SDS011;45901;47.600;9.890;2023-02-28T08:13:26;11.00;;;8.07;;
60030;SDS011;45901;47.600;9.890;2023-02-28T08:15:54;15.93;;;7.93;;
60030;SDS011;45901;47.600;9.890;2023-02-28T08:18:22;16.57;;;9.17;;
60030;SDS011;45901;47.600;9.890;2023-02-28T08:20:50;14.13;;;8.57;;
60030;SDS011;45901;47.600;9.890;2023-02-28T08:23:17;13.93;;;9.10;;
60030;SDS011;45901;47.600;9.890;2023-02-28T08:25:53;13.97;;;8.23;;
60030;SDS011;45901;47.600;9.890;2023-02-28T08:28:21;13.83;;;7.80;;
60030;SDS011;45901;47.600;9.890;2023-02-28T08:30:48;11.53;;;7.30;;
60030;SDS011;45901;47.600;9.890;2023-02-28T08:33:15;11.67;;;7.93;;
60030;SDS011;45901;47.600;9.890;2023-02-28T08:35:43;10.60;;;7.37;;
60030;SDS011;45901;47.600;9.890;2023-02-28T08:38:10;12.67;;;7.33;;
60030;SDS011;45901;47.600;9.890;2023-02-28T08:40:37;11.00;;;7.27;;
60030;SDS011;45901;47.600;9.890;2023-02-28T08:43:05;13.47;;;7.80;;
60030;SDS011;45901;47.600;9.890;2023-02-28T08:45:32;12.57;;;7.73;;
60030;SDS011;45901;47.600;9.890;2023-02-28T08:48:00;11.03;;;7.93;;
60030;SDS011;45901;47.600;9.890;2023-02-28T08:50:27;12.77;;;7.77;;
60030;SDS011;45901;47.600;9.890;2023-02-28T08:52:55;12.10;;;7.67;;
60030;SDS011;45901;47.600;9.890;2023-02-28T08:55:23;12.97;;;7.70;;
60030;SDS011;45901;47.600;9.890;2023-02-28T08:57:50;14.43;;;7.93;;
60030;SDS011;45901;47.600;9.890;2023-02-28T09:00:20;11.73;;;8.37;;
60030;SDS011;45901;47.600;9.890;2023-02-28T09:02:48;13.93;;;8.47;;
60030;SDS011;45901;47.600;9.890;2023-02-28T09:05:16;11.70;;;8.17;;
60030;SDS011;45901;47.600;9.890;2023-02-28T09:07:44;12.03;;;7.00;;
60030;SDS011;45901;47.600;9.890;2023-02-28T09:10:11;12.83;;;7.80;;
60030;SDS011;45901;47.600;9.890;2023-02-28T09:12:38;11.30;;;7.93;;
60030;SDS011;45901;47.600;9.890;2023-02-28T09:15:06;14.17;;;7.73;;
60030;SDS011;45901;47.600;9.890;2023-02-28T09:17:36;11.80;;;7.60;;
60030;SDS011;45901;47.600;9.890;2023-02-28T09:20:04;12.30;;;7.37;;
60030;SDS011;45901;47.600;9.890;2023-02-28T09:22:33;10.87;;;7.60;;
60030;SDS011;45901;47.600;9.890;2023-02-28T09:25:00;11.80;;;7.30;;
60030;SDS011;45901;47.600;9.890;2023-02-28T09:27:27;11.73;;;7.80;;
60030;SDS011;45901;47.600;9.890;2023-02-28T09:29:54;10.53;;;7.13;;
60030;SDS011;45901;47.600;9.890;2023-02-28T09:32:21;10.60;;;7.00;;
60030;SDS011;45901;47.600;9.890;2023-02-28T09:34:50;11.77;;;7.60;;
60030;SDS011;45901;47.600;9.890;2023-02-28T09:37:17;12.30;;;7.03;;
60030;SDS011;45901;47.600;9.890;2023-02-28T09:39:44;11.67;;;7.33;;
60030;SDS011;45901;47.600;9.890;2023-02-28T09:42:14;10.63;;;6.53;;
60030;SDS011;45901;47.600;9.890;2023-02-28T09:44:57;13.60;;;7.73;;
60030;SDS011;45901;47.600;9.890;2023-02-28T09:47:27;10.03;;;6.80;;
60030;SDS011;45901;47.600;9.890;2023-02-28T09:50:03;10.80;;;7.70;;
60030;SDS011;45901;47.600;9.890;2023-02-28T09:52:44;9.97;;;7.33;;
60030;SDS011;45901;47.600;9.890;2023-02-28T09:55:18;12.73;;;7.33;;
60030;SDS011;45901;47.600;9.890;2023-02-28T09:57:53;12.23;;;7.80;;
60030;SDS011;45901;47.600;9.890;2023-02-28T10:00:26;11.57;;;7.73;;
60030;SDS011;45901;47.600;9.890;2023-02-28T10:03:02;9.60;;;6.80;;
60030;SDS011;45901;47.600;9.890;2023-02-28T10:05:47;12.27;;;7.63;;
60030;SDS011;45901;47.600;9.890;2023-02-28T10:08:21;10.03;;;7.33;;
60030;SDS011;45901;47.600;9.890;2023-02-28T10:10:54;13.27;;;8.40;;
60030;SDS011;45901;47.600;9.890;2023-02-28T10:13:26;9.13;;;6.90;;
60030;SDS011;45901;47.600;9.890;2023-02-28T10:16:01;10.63;;;7.03;;
60030;SDS011;45901;47.600;9.890;2023-02-28T10:18:37;13.00;;;7.33;;
60030;SDS011;45901;47.600;9.890;2023-02-28T10:21:19;13.00;;;7.60;;
60030;SDS011;45901;47.600;9.890;2023-02-28T10:23:53;9.93;;;7.00;;
60030;SDS011;45901;47.600;9.890;2023-02-28T10:26:31;9.77;;;6.60;;
60030;SDS011;45901;47.600;9.890;2023-02-28T10:29:00;10.93;;;6.80;;
60030;SDS011;45901;47.600;9.890;2023-02-28T10:31:28;9.30;;;6.93;;
60030;SDS011;45901;47.600;9.890;2023-02-28T10:33:55;11.57;;;7.40;;
60030;SDS011;45901;47.600;9.890;2023-02-28T10:36:24;9.20;;;6.53;;
60030;SDS011;45901;47.600;9.890;2023-02-28T10:38:51;9.53;;;7.20;;
60030;SDS011;45901;47.600;9.890;2023-02-28T10:53:49;10.27;;;6.60;;
60030;SDS011;45901;47.600;9.890;2023-02-28T10:56:19;11.07;;;7.60;;
60030;SDS011;45901;47.600;9.890;2023-02-28T10:58:52;9.63;;;6.90;;
60030;SDS011;45901;47.600;9.890;2023-02-28T11:01:34;11.03;;;6.60;;
60030;SDS011;45901;47.600;9.890;2023-02-28T11:04:17;10.60;;;7.50;;
60030;SDS011;45901;47.600;9.890;2023-02-28T11:07:04;9.93;;;7.20;;
60030;SDS011;45901;47.600;9.890;2023-02-28T11:09:46;10.47;;;6.70;;
60030;SDS011;45901;47.600;9.890;2023-02-28T11:12:23;9.67;;;7.07;;
60030;SDS011;45901;47.600;9.890;2023-02-28T11:14:58;9.93;;;7.30;;
60030;SDS011;45901;47.600;9.890;2023-02-28T11:17:36;9.77;;;6.70;;
60030;SDS011;45901;47.600;9.890;2023-02-28T11:33:57;10.07;;;7.33;;
60030;SDS011;45901;47.600;9.890;2023-02-28T11:36:24;9.57;;;7.23;;
60030;SDS011;45901;47.600;9.890;2023-02-28T11:57:53;10.27;;;7.10;;
60030;SDS011;45901;47.600;9.890;2023-02-28T12:01:36;10.53;;;7.03;;
60030;SDS011;45901;47.600;9.890;2023-02-28T12:04:35;11.97;;;7.17;;
60030;SDS011;45901;47.600;9.890;2023-02-28T12:11:40;9.97;;;7.23;;
60030;SDS011;45901;47.600;9.890;2023-02-28T12:17:29;10.03;;;7.00;;
60030;SDS011;45901;47.600;9.890;2023-02-28T12:20:15;9.93;;;7.17;;
60030;SDS011;45901;47.600;9.890;2023-02-28T12:22:54;11.50;;;7.70;;
60030;SDS011;45901;47.600;9.890;2023-02-28T12:25:43;11.23;;;7.50;;
60030;SDS011;45901;47.600;9.890;2023-02-28T12:28:27;8.93;;;6.93;;
60030;SDS011;45901;47.600;9.890;2023-02-28T12:31:08;10.53;;;7.87;;
60030;SDS011;45901;47.600;9.890;2023-02-28T12:34:09;12.37;;;7.50;;
60030;SDS011;45901;47.600;9.890;2023-02-28T12:36:44;9.37;;;6.83;;
60030;SDS011;45901;47.600;9.890;2023-02-28T12:39:16;9.93;;;7.00;;
60030;SDS011;45901;47.600;9.890;2023-02-28T12:42:05;11.07;;;7.10;;
60030;SDS011;45901;47.600;9.890;2023-02-28T12:44:46;9.70;;;6.93;;
60030;SDS011;45901;47.600;9.890;2023-02-28T12:47:19;12.17;;;7.40;;
60030;SDS011;45901;47.600;9.890;2023-02-28T12:49:48;10.27;;;7.60;;
60030;SDS011;45901;47.600;9.890;2023-02-28T12:52:22;12.63;;;8.13;;
60030;SDS011;45901;47.600;9.890;2023-02-28T12:54:56;10.00;;;7.53;;
60030;SDS011;45901;47.600;9.890;2023-02-28T12:57:33;9.93;;;7.70;;
60030;SDS011;45901;47.600;9.890;2023-02-28T13:00:10;9.67;;;7.67;;
60030;SDS011;45901;47.600;9.890;2023-02-28T13:02:51;10.80;;;7.97;;
60030;SDS011;45901;47.600;9.890;2023-02-28T13:05:49;10.00;;;7.67;;
60030;SDS011;45901;47.600;9.890;2023-02-28T13:11:38;9.27;;;7.20;;
60030;SDS011;45901;47.600;9.890;2023-02-28T13:14:16;11.73;;;8.43;;
60030;SDS011;45901;47.600;9.890;2023-02-28T13:17:10;12.17;;;8.80;;
60030;SDS011;45901;47.600;9.890;2023-02-28T13:19:40;9.93;;;7.90;;
60030;SDS011;45901;47.600;9.890;2023-02-28T13:22:16;12.10;;;8.47;;
60030;SDS011;45901;47.600;9.890;2023-02-28T13:25:04;11.37;;;8.47;;
60030;SDS011;45901;47.600;9.890;2023-02-28T13:35:44;13.37;;;9.50;;
60030;SDS011;45901;47.600;9.890;2023-02-28T13:38:24;12.10;;;9.10;;
60030;SDS011;45901;47.600;9.890;2023-02-28T13:44:13;11.87;;;8.57;;
60030;SDS011;45901;47.600;9.890;2023-02-28T13:56:22;12.13;;;9.33;;
60030;SDS011;45901;47.600;9.890;2023-02-28T13:58:59;13.33;;;9.30;;
60030;SDS011;45901;47.600;9.890;2023-02-28T14:01:46;13.37;;;9.83;;
60030;SDS011;45901;47.600;9.890;2023-02-28T14:07:29;13.63;;;9.90;;
60030;SDS011;45901;47.600;9.890;2023-02-28T14:10:06;14.10;;;9.90;;
60030;SDS011;45901;47.600;9.890;2023-02-28T14:13:00;15.00;;;10.43;;
60030;SDS011;45901;47.600;9.890;2023-02-28T14:15:43;12.77;;;9.10;;
60030;SDS011;45901;47.600;9.890;2023-02-28T14:18:25;15.33;;;10.13;;
60030;SDS011;45901;47.600;9.890;2023-02-28T14:20:58;15.13;;;9.67;;
60030;SDS011;45901;47.600;9.890;2023-02-28T14:27:05;13.23;;;9.87;;
60030;SDS011;45901;47.600;9.890;2023-02-28T14:30:02;12.90;;;9.73;;
60030;SDS011;45901;47.600;9.890;2023-02-28T14:32:58;15.63;;;9.90;;
60030;SDS011;45901;47.600;9.890;2023-02-28T14:35:51;14.70;;;10.43;;
60030;SDS011;45901;47.600;9.890;2023-02-28T14:38:42;13.47;;;10.63;;
60030;SDS011;45901;47.600;9.890;2023-02-28T14:41:18;16.03;;;10.73;;
60030;SDS011;45901;47.600;9.890;2023-02-28T14:43:52;16.33;;;10.33;;
60030;SDS011;45901;47.600;9.890;2023-02-28T14:46:22;15.60;;;10.03;;
60030;SDS011;45901;47.600;9.890;2023-02-28T14:48:55;14.37;;;10.90;;
60030;SDS011;45901;47.600;9.890;2023-02-28T14:51:23;12.90;;;9.73;;
60030;SDS011;45901;47.600;9.890;2023-02-28T14:53:55;15.60;;;11.20;;
60030;SDS011;45901;47.600;9.890;2023-02-28T14:56:26;17.33;;;11.60;;
60030;SDS011;45901;47.600;9.890;2023-02-28T14:59:04;15.90;;;11.33;;
60030;SDS011;45901;47.600;9.890;2023-02-28T15:01:48;17.37;;;11.27;;
60030;SDS011;45901;47.600;9.890;2023-02-28T15:04:18;16.67;;;12.00;;
60030;SDS011;45901;47.600;9.890;2023-02-28T15:07:06;15.10;;;10.23;;
60030;SDS011;45901;47.600;9.890;2023-02-28T15:09:34;20.27;;;12.50;;
60030;SDS011;45901;47.600;9.890;2023-02-28T15:12:01;16.17;;;11.90;;
60030;SDS011;45901;47.600;9.890;2023-02-28T15:14:30;20.00;;;11.80;;
60030;SDS011;45901;47.600;9.890;2023-02-28T15:17:00;19.63;;;11.80;;
60030;SDS011;45901;47.600;9.890;2023-02-28T15:19:33;19.77;;;12.30;;
60030;SDS011;45901;47.600;9.890;2023-02-28T15:22:06;20.23;;;12.00;;
60030;SDS011;45901;47.600;9.890;2023-02-28T15:24:40;21.67;;;13.00;;
60030;SDS011;45901;47.600;9.890;2023-02-28T15:27:12;18.33;;;11.87;;
60030;SDS011;45901;47.600;9.890;2023-02-28T15:29:50;19.77;;;13.13;;
60030;SDS011;45901;47.600;9.890;2023-02-28T15:32:27;19.10;;;12.67;;
60030;SDS011;45901;47.600;9.890;2023-02-28T15:34:57;21.97;;;14.17;;
60030;SDS011;45901;47.600;9.890;2023-02-28T15:37:33;18.53;;;12.77;;
60030;SDS011;45901;47.600;9.890;2023-02-28T15:40:12;19.00;;;13.07;;
60030;SDS011;45901;47.600;9.890;2023-02-28T15:42:57;18.20;;;12.27;;
60030;SDS011;45901;47.600;9.890;2023-02-28T15:45:35;22.83;;;13.63;;
60030;SDS011;45901;47.600;9.890;2023-02-28T15:48:13;21.23;;;12.87;;
60030;SDS011;45901;47.600;9.890;2023-02-28T15:50:47;20.63;;;13.43;;
60030;SDS011;45901;47.600;9.890;2023-02-28T15:53:19;20.20;;;13.63;;
60030;SDS011;45901;47.600;9.890;2023-02-28T15:55:54;19.93;;;12.37;;
60030;SDS011;45901;47.600;9.890;2023-02-28T15:58:26;20.57;;;13.10;;
60030;SDS011;45901;47.600;9.890;2023-02-28T16:01:04;22.03;;;13.73;;
60030;SDS011;45901;47.600;9.890;2023-02-28T16:03:38;27.73;;;15.03;;
60030;SDS011;45901;47.600;9.890;2023-02-28T16:09:05;21.20;;;13.30;;
60030;SDS011;45901;47.600;9.890;2023-02-28T16:11:39;28.97;;;15.97;;
60030;SDS011;45901;47.600;9.890;2023-02-28T16:14:15;28.00;;;15.80;;
60030;SDS011;45901;47.600;9.890;2023-02-28T16:16:48;25.67;;;15.37;;
60030;SDS011;45901;47.600;9.890;2023-02-28T16:19:17;28.37;;;15.33;;
60030;SDS011;45901;47.600;9.890;2023-02-28T16:21:46;24.10;;;15.07;;
60030;SDS011;45901;47.600;9.890;2023-02-28T16:24:14;24.93;;;15.23;;
60030;SDS011;45901;47.600;9.890;2023-02-28T16:26:41;30.03;;;16.63;;
60030;SDS011;45901;47.600;9.890;2023-02-28T16:29:13;24.00;;;15.40;;
60030;SDS011;45901;47.600;9.890;2023-02-28T16:32:05;24.60;;;14.97;;
60030;SDS011;45901;47.600;9.890;2023-02-28T16:34:33;24.57;;;15.43;;
60030;SDS011;45901;47.600;9.890;2023-02-28T16:37:00;23.27;;;15.07;;